Time;durP1;ratioP1;P1;durP2;ratioP2;P2;SDS_P1;SDS_P2;PMS_P1;PMS_P2;Temp;Humidity;BMP_temperature;BMP_pressure;BME280_temperature;BME280_humidity;BME280_pressure;Samples;Min_cycle;Max_cycle;Signal;HPM_P1;HPM_P2
2021/12/13 00:01:31;;;;;;;32.08;14.90;;;8.80;99.90;;;;;;4987430;28;20119;-84
2021/12/13 00:04:07;;;;;;;21.10;11.98;;;8.70;99.90;;;;;;4988634;28;20038;-84
2021/12/13 00:06:39;;;;;;;15.63;10.77;;;8.70;99.90;;;;;;4980111;28;20091;-84
2021/12/13 00:09:11;;;;;;;19.83;12.10;;;8.80;99.90;;;;;;5005199;28;20030;-84
2021/12/13 00:11:39;;;;;;;26.75;15.45;;;8.70;99.90;;;;;;4965552;28;20061;-84
2021/12/13 00:14:20;;;;;;;27.75;16.77;;;8.70;99.90;;;;;;4982760;28;20034;-84
2021/12/13 00:16:56;;;;;;;24.40;15.93;;;8.80;99.90;;;;;;4996235;28;20055;-84
2021/12/13 00:19:22;;;;;;;;;;;8.80;99.90;;;;;;4995252;28;20041;-84
2021/12/13 00:21:50;;;;;;;21.05;12.27;;;8.70;99.90;;;;;;4992808;28;20392;-84
2021/12/13 00:24:24;;;;;;;17.90;12.32;;;8.70;99.90;;;;;;4989041;28;20034;-84
2021/12/13 00:26:52;;;;;;;26.25;15.73;;;8.70;99.90;;;;;;4990475;28;20034;-84
2021/12/13 00:29:19;;;;;;;21.23;14.45;;;8.80;99.90;;;;;;4980946;28;20378;-84
2021/12/13 00:32:03;;;;;;;19.38;11.38;;;8.70;99.90;;;;;;4985934;28;20030;-84
2021/12/13 00:34:52;;;;;;;10.63;6.15;;;8.70;99.90;;;;;;4979529;28;20516;-84
2021/12/13 00:37:28;;;;;;;20.88;11.77;;;8.70;99.90;;;;;;5008754;28;20033;-84
2021/12/13 00:40:13;;;;;;;20.30;13.68;;;8.70;99.90;;;;;;4979451;28;20042;-84
2021/12/13 00:42:51;;;;;;;14.73;7.28;;;8.70;99.90;;;;;;4994228;28;20474;-84
2021/12/13 00:45:18;;;;;;;18.50;11.13;;;8.70;99.90;;;;;;4993325;28;20034;-84
2021/12/13 00:47:44;;;;;;;16.58;9.88;;;8.70;99.90;;;;;;4976286;28;20115;-84
2021/12/13 00:50:26;;;;;;;18.70;11.05;;;8.70;99.90;;;;;;4978303;28;20489;-84
2021/12/13 00:52:52;;;;;;;14.38;9.43;;;8.70;99.90;;;;;;4987802;28;20037;-84
2021/12/13 00:55:31;;;;;;;20.83;11.77;;;8.70;99.90;;;;;;4989102;28;20036;-84
2021/12/13 00:58:14;;;;;;;24.60;15.25;;;8.70;99.90;;;;;;4984847;28;20490;-84
2021/12/13 01:00:49;;;;;;;15.13;9.85;;;8.70;99.90;;;;;;4991744;28;20092;-84
2021/12/13 01:03:20;;;;;;;12.65;8.57;;;8.70;99.90;;;;;;5007891;28;20093;-84
2021/12/13 01:06:15;;;;;;;14.85;9.00;;;8.70;99.90;;;;;;4991288;28;20545;-84
2021/12/13 01:09:02;;;;;;;16.60;10.93;;;8.70;99.90;;;;;;5012946;28;20026;-84
2021/12/13 01:11:51;;;;;;;17.55;10.82;;;8.70;99.90;;;;;;4998835;28;20037;-84
2021/12/13 01:14:41;;;;;;;18.05;12.02;;;8.70;99.90;;;;;;4998988;28;20037;-83
2021/12/13 01:17:48;;;;;;;17.60;11.00;;;8.70;99.90;;;;;;4978888;28;20025;-84
2021/12/13 01:20:24;;;;;;;16.33;8.48;;;8.70;99.90;;;;;;4987239;28;20128;-84
2021/12/13 01:22:54;;;;;;;14.02;8.02;;;8.70;99.90;;;;;;4996172;28;20107;-84
2021/12/13 01:25:46;;;;;;;23.85;14.95;;;8.70;99.90;;;;;;5010229;28;20028;-83
2021/12/13 01:28:32;;;;;;;10.27;5.25;;;8.70;99.90;;;;;;5010225;28;20029;-84
2021/12/13 01:31:10;;;;;;;14.45;9.40;;;8.70;99.90;;;;;;4983100;28;20029;-84
2021/12/13 01:33:39;;;;;;;19.10;10.77;;;8.70;99.90;;;;;;4989478;28;20033;-84
2021/12/13 01:36:07;;;;;;;17.98;12.68;;;8.70;99.90;;;;;;4989322;28;20394;-84
2021/12/13 01:38:45;;;;;;;18.30;8.85;;;8.70;99.90;;;;;;4978702;28;20118;-84
2021/12/13 01:41:16;;;;;;;13.60;6.65;;;8.70;99.90;;;;;;5004742;28;20029;-84
2021/12/13 01:43:48;;;;;;;22.15;10.73;;;8.70;99.90;;;;;;4990971;28;20435;-84
2021/12/13 01:46:14;;;;;;;19.63;13.35;;;8.70;99.90;;;;;;4980725;28;20040;-84
2021/12/13 01:48:42;;;;;;;17.33;8.90;;;8.70;99.90;;;;;;4972758;28;20033;-84
2021/12/13 01:51:11;;;;;;;20.20;11.73;;;8.70;99.90;;;;;;5006561;28;20057;-84
2021/12/13 01:53:42;;;;;;;21.58;12.30;;;8.70;99.90;;;;;;4996420;28;20037;-84
2021/12/13 01:56:52;;;;;;;9.82;5.50;;;8.70;99.90;;;;;;5024017;28;20040;-84
2021/12/13 02:01:55;;;;;;;;;;;8.60;99.90;;;;;;5006663;28;20091;-84
2021/12/13 02:04:22;;;;;;;;;;;8.60;99.90;;;;;;4981991;28;19917;-84
2021/12/13 02:06:49;;;;;;;11.93;8.27;;;8.60;99.90;;;;;;4982052;28;19913;-84
2021/12/13 02:09:27;;;;;;;14.80;10.40;;;8.60;99.90;;;;;;5007179;28;20658;-84
2021/12/13 02:11:58;;;;;;;12.73;5.50;;;8.60;99.90;;;;;;4953064;28;20034;-84
2021/12/13 02:14:27;;;;;;;17.75;10.57;;;8.60;99.90;;;;;;4980731;28;20059;-84
2021/12/13 02:17:01;;;;;;;16.83;10.82;;;8.60;99.90;;;;;;4975698;28;20084;-84
2021/12/13 02:19:34;;;;;;;16.70;11.30;;;8.60;99.90;;;;;;4989907;28;20042;-84
2021/12/13 02:22:16;;;;;;;16.15;10.35;;;8.60;99.90;;;;;;4993639;28;20049;-84
2021/12/13 02:24:42;;;;;;;15.32;9.55;;;8.60;99.90;;;;;;5004147;28;20120;-84
2021/12/13 02:27:08;;;;;;;18.13;9.95;;;8.60;99.90;;;;;;4987936;28;20053;-84
2021/12/13 02:29:38;;;;;;;13.02;7.43;;;8.60;99.90;;;;;;4993700;28;20030;-84
2021/12/13 02:32:09;;;;;;;19.90;10.85;;;8.60;99.90;;;;;;4970534;28;20026;-84
2021/12/13 02:34:37;;;;;;;19.30;10.43;;;8.60;99.90;;;;;;4977955;28;20136;-84
2021/12/13 02:37:03;;;;;;;16.20;8.60;;;8.60;99.90;;;;;;4976386;28;20057;-83
2021/12/13 02:39:31;;;;;;;14.75;9.85;;;8.60;99.90;;;;;;4990572;28;20445;-83
2021/12/13 02:41:57;;;;;;;11.38;5.95;;;8.60;99.90;;;;;;4987658;28;20421;-84
2021/12/13 02:44:42;;;;;;;17.27;9.25;;;8.60;99.90;;;;;;4974818;28;20457;-84
2021/12/13 02:47:32;;;;;;;13.48;8.75;;;8.60;99.90;;;;;;4989439;28;20057;-84
2021/12/13 02:49:58;;;;;;;12.52;8.60;;;8.60;99.90;;;;;;4995771;28;20029;-83
2021/12/13 02:52:24;;;;;;;12.52;7.00;;;8.60;99.90;;;;;;4988266;28;20117;-84
2021/12/13 02:54:52;;;;;;;9.93;4.97;;;8.60;99.90;;;;;;4977165;28;20386;-83
2021/12/13 02:57:45;;;;;;;13.80;9.18;;;8.60;99.90;;;;;;4985279;28;20029;-84
2021/12/13 03:00:25;;;;;;;17.05;9.27;;;8.50;99.90;;;;;;5004736;28;20088;-83
2021/12/13 03:02:54;;;;;;;12.57;8.60;;;8.50;99.90;;;;;;5001321;28;20529;-84
2021/12/13 03:05:35;;;;;;;15.68;9.95;;;8.50;99.90;;;;;;5007054;28;20485;-82
2021/12/13 03:08:06;;;;;;;12.98;8.13;;;8.50;99.90;;;;;;4992349;28;20108;-81
2021/12/13 03:10:36;;;;;;;10.70;7.15;;;8.50;99.90;;;;;;4973911;28;20030;-82
2021/12/13 03:13:02;;;;;;;13.50;9.20;;;8.50;99.90;;;;;;4986284;28;20366;-82
2021/12/13 03:15:29;;;;;;;13.90;8.23;;;8.50;99.90;;;;;;4992875;28;20033;-82
2021/12/13 03:18:06;;;;;;;14.40;8.93;;;8.50;99.90;;;;;;4989781;28;20018;-82
2021/12/13 03:20:44;;;;;;;16.38;8.50;;;8.50;99.90;;;;;;4988098;28;20748;-82
2021/12/13 03:23:29;;;;;;;18.05;8.40;;;8.50;99.90;;;;;;5006636;28;20029;-82
2021/12/13 03:26:23;;;;;;;11.25;7.80;;;8.50;99.90;;;;;;5007279;28;20403;-81
2021/12/13 03:29:07;;;;;;;10.40;7.80;;;8.40;99.90;;;;;;4977572;28;20041;-81
2021/12/13 03:31:45;;;;;;;11.30;7.78;;;8.40;99.90;;;;;;5002359;28;20391;-81
2021/12/13 03:34:17;;;;;;;10.85;7.55;;;8.40;99.90;;;;;;5004961;28;20025;-82
2021/12/13 03:36:45;;;;;;;13.10;6.82;;;8.40;99.90;;;;;;5006521;28;20060;-81
2021/12/13 03:39:14;;;;;;;10.88;7.53;;;8.40;99.90;;;;;;5008034;28;20444;-82
2021/12/13 03:41:41;;;;;;;10.15;6.75;;;8.40;99.90;;;;;;4992171;28;20038;-82
2021/12/13 03:44:09;;;;;;;10.80;6.35;;;8.40;99.90;;;;;;4984014;28;20025;-82
2021/12/13 03:46:36;;;;;;;12.38;7.20;;;8.40;99.90;;;;;;4975520;28;20509;-82
2021/12/13 03:49:02;;;;;;;12.55;7.78;;;8.40;99.90;;;;;;4977483;28;20030;-82
2021/12/13 03:51:30;;;;;;;9.80;6.55;;;8.40;99.90;;;;;;4992556;28;20026;-82
2021/12/13 03:53:56;;;;;;;9.88;5.40;;;8.40;99.90;;;;;;4989388;28;20029;-82
2021/12/13 03:56:28;;;;;;;11.02;7.25;;;8.40;99.90;;;;;;4973277;28;20058;-82
2021/12/13 03:58:57;;;;;;;8.23;5.88;;;8.40;99.90;;;;;;4990202;28;20034;-82
2021/12/13 04:01:28;;;;;;;8.43;6.03;;;8.40;99.90;;;;;;4989025;28;20100;-82
2021/12/13 04:03:56;;;;;;;9.93;6.35;;;8.40;99.90;;;;;;4971495;28;20029;-82
2021/12/13 04:06:22;;;;;;;8.00;5.55;;;8.40;99.90;;;;;;4974937;28;20070;-81
2021/12/13 04:08:55;;;;;;;9.50;6.20;;;8.30;99.90;;;;;;4991001;28;20061;-82
2021/12/13 04:11:21;;;;;;;12.70;7.80;;;8.40;99.90;;;;;;4980216;28;20077;-82
2021/12/13 04:13:51;;;;;;;11.25;7.13;;;8.40;99.90;;;;;;4971436;28;20025;-82
2021/12/13 04:16:34;;;;;;;12.40;6.88;;;8.40;99.90;;;;;;4974191;28;20468;-82
2021/12/13 04:19:10;;;;;;;11.43;6.82;;;8.40;99.90;;;;;;4973570;28;20052;-81
2021/12/13 04:21:46;;;;;;;9.65;5.38;;;8.40;99.90;;;;;;4991160;28;20037;-81
2021/12/13 04:24:21;;;;;;;11.25;7.68;;;8.40;99.90;;;;;;4990429;28;20667;-81
2021/12/13 04:26:52;;;;;;;11.15;6.47;;;8.30;99.90;;;;;;5010028;28;20041;-82
2021/12/13 04:29:30;;;;;;;10.77;6.18;;;8.30;99.90;;;;;;4990376;28;20542;-81
2021/12/13 04:31:56;;;;;;;16.70;7.70;;;8.40;99.90;;;;;;4976198;28;20037;-82
2021/12/13 04:34:23;;;;;;;13.18;6.97;;;8.30;99.90;;;;;;5009379;28;20029;-82
2021/12/13 04:36:50;;;;;;;12.40;7.82;;;8.30;99.90;;;;;;4988208;28;20168;-81
2021/12/13 04:39:35;;;;;;;11.73;7.07;;;8.30;99.90;;;;;;5011303;28;20413;-81
2021/12/13 04:42:06;;;;;;;10.98;7.00;;;8.30;99.90;;;;;;4982924;28;20121;-82
2021/12/13 04:44:55;;;;;;;10.95;7.10;;;8.40;99.90;;;;;;4989603;28;20491;-81
2021/12/13 04:47:29;;;;;;;14.20;8.02;;;8.30;99.90;;;;;;5007472;28;20498;-82
2021/12/13 04:50:17;;;;;;;8.98;6.03;;;8.30;99.90;;;;;;4993771;28;20033;-82
2021/12/13 04:52:43;;;;;;;10.43;7.07;;;8.30;99.90;;;;;;4973787;28;20033;-81
2021/12/13 04:55:11;;;;;;;11.05;7.47;;;8.30;99.90;;;;;;5003911;28;20080;-81
2021/12/13 04:57:38;;;;;;;11.50;7.70;;;8.30;99.90;;;;;;4973296;28;20076;-82
2021/12/13 05:00:11;;;;;;;13.35;6.30;;;8.30;99.90;;;;;;5006185;28;20033;-82
2021/12/13 05:02:38;;;;;;;8.70;4.88;;;8.30;99.90;;;;;;4991106;28;20034;-82
2021/12/13 05:05:04;;;;;;;9.82;6.05;;;8.20;99.90;;;;;;4971965;28;20033;-82
2021/12/13 05:07:31;;;;;;;13.70;4.85;;;8.30;99.90;;;;;;4995060;28;20049;-81
2021/12/13 05:09:57;;;;;;;12.82;6.88;;;8.30;99.90;;;;;;5005349;28;20485;-82
2021/12/13 05:12:25;;;;;;;15.40;9.05;;;8.30;99.90;;;;;;4980887;28;20041;-82
2021/12/13 05:15:11;;;;;;;15.23;10.57;;;8.30;99.90;;;;;;4998820;28;20029;-81
2021/12/13 05:17:44;;;;;;;16.25;7.25;;;8.30;99.90;;;;;;4998437;28;20080;-82
2021/12/13 05:20:14;;;;;;;15.15;8.35;;;8.30;99.90;;;;;;4972578;28;20077;-81
2021/12/13 05:22:52;;;;;;;14.13;7.28;;;8.40;99.90;;;;;;4993967;28;20056;-82
2021/12/13 05:25:36;;;;;;;12.85;7.53;;;8.30;99.90;;;;;;5008572;28;20565;-82
2021/12/13 05:28:17;;;;;;;14.02;8.13;;;8.30;99.90;;;;;;4993582;28;20117;-81
2021/12/13 05:30:48;;;;;;;11.98;7.75;;;8.30;99.90;;;;;;4976490;28;20164;-81
2021/12/13 05:33:14;;;;;;;15.15;7.03;;;8.30;99.90;;;;;;4987169;28;20056;-81
2021/12/13 05:35:43;;;;;;;14.32;8.48;;;8.30;99.90;;;;;;4980154;28;20397;-81
2021/12/13 05:38:11;;;;;;;13.68;8.40;;;8.30;99.90;;;;;;4989264;28;20389;-81
2021/12/13 05:40:44;;;;;;;15.57;8.07;;;8.30;99.90;;;;;;4994471;28;20512;-81
2021/12/13 05:43:26;;;;;;;13.30;8.00;;;8.30;99.90;;;;;;4973013;28;20053;-81
2021/12/13 05:45:58;;;;;;;11.35;7.50;;;8.30;99.90;;;;;;4988430;28;20379;-81
2021/12/13 05:48:38;;;;;;;9.55;5.68;;;8.30;99.90;;;;;;4958075;28;20418;-81
2021/12/13 05:51:06;;;;;;;10.40;6.35;;;8.30;99.90;;;;;;4966876;28;20044;-82
2021/12/13 05:53:36;;;;;;;10.00;6.38;;;8.30;99.90;;;;;;5009048;28;20149;-81
2021/12/13 05:56:04;;;;;;;11.35;6.25;;;8.30;99.90;;;;;;4992877;28;20044;-81
2021/12/13 05:58:31;;;;;;;10.07;6.70;;;8.30;99.90;;;;;;4993448;28;20501;-81
2021/12/13 06:00:57;;;;;;;12.30;7.10;;;8.30;99.90;;;;;;4987329;28;20490;-81
2021/12/13 06:03:33;;;;;;;9.55;7.10;;;8.30;99.90;;;;;;4991056;28;20502;-81
2021/12/13 06:06:06;;;;;;;;;;;8.30;99.90;;;;;;4987110;28;20440;-81
2021/12/13 06:08:40;;;;;;;13.40;7.95;;;8.30;99.90;;;;;;5006329;28;19913;-81
2021/12/13 06:11:36;;;;;;;13.32;6.68;;;8.30;99.90;;;;;;5007546;28;20040;-81
2021/12/13 06:14:18;;;;;;;9.38;6.47;;;8.30;99.90;;;;;;4997744;28;20443;-82
2021/12/13 06:17:05;;;;;;;9.82;7.20;;;8.30;99.90;;;;;;5009428;28;20022;-81
2021/12/13 06:19:37;;;;;;;13.32;8.00;;;8.30;99.90;;;;;;5006784;28;20041;-81
2021/12/13 06:22:23;;;;;;;12.63;6.55;;;8.30;99.90;;;;;;5025244;28;20060;-80
2021/12/13 06:24:56;;;;;;;10.00;6.72;;;8.30;99.90;;;;;;4990048;28;20033;-81
2021/12/13 06:27:21;;;;;;;12.63;5.82;;;8.30;99.90;;;;;;5008086;28;20083;-81
2021/12/13 06:29:53;;;;;;;12.05;6.80;;;8.30;99.90;;;;;;5007538;28;20125;-81
2021/12/13 06:32:41;;;;;;;11.20;7.32;;;8.30;99.90;;;;;;4991663;28;20654;-81
2021/12/13 06:35:27;;;;;;;12.35;7.38;;;8.30;99.90;;;;;;4988081;28;20029;-81
2021/12/13 06:37:52;;;;;;;10.32;5.35;;;8.30;99.90;;;;;;5000994;28;20112;-81
2021/12/13 06:40:27;;;;;;;10.07;5.88;;;8.30;99.90;;;;;;4989087;28;20153;-81
2021/12/13 06:42:54;;;;;;;9.30;5.60;;;8.30;99.90;;;;;;4984320;28;20140;-82
2021/12/13 06:45:27;;;;;;;10.20;6.50;;;8.30;99.90;;;;;;4990787;28;20033;-81
2021/12/13 06:47:53;;;;;;;8.88;6.13;;;8.40;99.90;;;;;;4969947;28;20039;-81
2021/12/13 06:50:30;;;;;;;6.78;3.67;;;8.30;99.90;;;;;;5005986;28;20045;-81
2021/12/13 06:53:28;;;;;;;9.30;5.75;;;8.30;99.90;;;;;;5007945;28;20041;-81
2021/12/13 06:55:53;;;;;;;7.13;4.53;;;8.30;99.90;;;;;;4959518;28;20496;-81
2021/12/13 06:58:27;;;;;;;11.07;5.10;;;8.40;99.90;;;;;;5008414;28;22131;-81
2021/12/13 07:00:56;;;;;;;9.98;5.65;;;8.40;99.90;;;;;;4976812;28;20512;-81
2021/12/13 07:03:32;;;;;;;13.15;6.70;;;8.40;99.90;;;;;;5002574;28;20505;-81
2021/12/13 07:05:58;;;;;;;13.40;6.53;;;8.40;99.90;;;;;;5006100;28;20061;-82
2021/12/13 07:08:30;;;;;;;8.40;5.25;;;8.40;99.90;;;;;;4977447;28;20489;-81
2021/12/13 07:10:59;;;;;;;7.75;4.70;;;8.40;99.90;;;;;;4988384;28;20449;-82
2021/12/13 07:13:47;;;;;;;7.20;3.70;;;8.40;99.90;;;;;;5005864;28;20103;-82
2021/12/13 07:16:21;;;;;;;8.40;5.40;;;8.40;99.90;;;;;;4977427;28;20075;-81
2021/12/13 07:19:03;;;;;;;11.70;6.90;;;8.40;99.90;;;;;;4973735;28;20154;-82
2021/12/13 07:21:50;;;;;;;7.80;5.40;;;8.40;99.90;;;;;;4985818;28;20572;-82
2021/12/13 07:24:17;;;;;;;10.10;5.18;;;8.40;99.90;;;;;;4973317;28;20033;-82
2021/12/13 07:26:55;;;;;;;9.50;5.13;;;8.40;99.90;;;;;;4972854;28;20422;-82
2021/12/13 07:29:55;;;;;;;11.18;5.68;;;8.40;99.90;;;;;;5004162;28;20041;-82
2021/12/13 07:32:29;;;;;;;9.68;4.07;;;8.40;99.90;;;;;;4989947;28;20038;-81
2021/12/13 07:35:11;;;;;;;13.70;5.80;;;8.40;99.90;;;;;;4989096;28;20113;-82
2021/12/13 07:37:44;;;;;;;7.80;3.95;;;8.40;99.90;;;;;;5002134;28;20026;-82
2021/12/13 07:40:22;;;;;;;12.45;6.43;;;8.40;99.90;;;;;;4996226;28;20636;-82
2021/12/13 07:43:03;;;;;;;12.45;6.55;;;8.40;99.90;;;;;;4997826;28;20030;-82
2021/12/13 07:45:48;;;;;;;11.10;5.32;;;8.40;99.90;;;;;;4967549;28;20030;-82
2021/12/13 07:48:19;;;;;;;8.93;5.78;;;8.40;99.90;;;;;;4989442;28;20032;-81
2021/12/13 07:50:55;;;;;;;12.30;6.63;;;8.40;99.90;;;;;;4992058;28;20036;-81
2021/12/13 07:53:21;;;;;;;10.95;5.10;;;8.40;99.90;;;;;;4975652;28;20026;-82
2021/12/13 07:55:47;;;;;;;10.02;5.35;;;8.40;99.90;;;;;;4992475;28;20030;-81
2021/12/13 07:58:16;;;;;;;9.40;6.28;;;8.40;99.90;;;;;;5010036;28;20056;-81
2021/12/13 08:00:41;;;;;;;8.30;5.25;;;8.40;99.90;;;;;;5007214;28;20502;-81
2021/12/13 08:03:15;;;;;;;9.20;5.70;;;8.40;99.90;;;;;;4982306;28;20025;-82
2021/12/13 08:05:49;;;;;;;9.80;6.82;;;8.40;99.90;;;;;;5005874;28;20160;-82
2021/12/13 08:08:25;;;;;;;7.55;3.97;;;8.40;99.90;;;;;;4992524;28;20033;-82
2021/12/13 08:10:58;;;;;;;13.93;6.45;;;8.40;99.90;;;;;;4995581;28;20052;-81
2021/12/13 08:13:26;;;;;;;9.75;5.85;;;8.40;99.90;;;;;;4991008;28;20500;-82
2021/12/13 08:15:54;;;;;;;9.48;6.32;;;8.40;99.90;;;;;;5009490;28;20069;-82
2021/12/13 08:18:30;;;;;;;11.15;6.65;;;8.40;99.90;;;;;;4972514;28;20390;-82
2021/12/13 08:21:01;;;;;;;10.95;5.25;;;8.40;99.90;;;;;;4994577;28;20040;-82
2021/12/13 08:23:35;;;;;;;6.63;4.43;;;8.40;99.90;;;;;;4975249;28;20036;-82
2021/12/13 08:26:02;;;;;;;6.57;4.15;;;8.40;99.90;;;;;;5002165;28;20076;-82
2021/12/13 08:28:49;;;;;;;7.70;5.65;;;8.40;99.90;;;;;;4995193;28;20040;-83
2021/12/13 08:31:26;;;;;;;10.70;6.50;;;8.40;99.90;;;;;;4984783;28;20109;-82
2021/12/13 08:34:09;;;;;;;7.20;4.28;;;8.40;99.90;;;;;;5003387;28;20056;-82
2021/12/13 08:36:43;;;;;;;7.43;4.97;;;8.40;99.90;;;;;;4992373;28;20057;-81
2021/12/13 08:39:10;;;;;;;13.70;5.30;;;8.40;99.90;;;;;;4973709;28;20371;-82
2021/12/13 08:41:46;;;;;;;9.55;6.72;;;8.40;99.90;;;;;;5005113;28;20038;-82
2021/12/13 08:44:11;;;;;;;11.65;5.88;;;8.40;99.90;;;;;;5005158;28;20567;-82
2021/12/13 08:46:45;;;;;;;6.03;4.32;;;8.50;99.90;;;;;;5003959;28;20038;-83
2021/12/13 08:49:16;;;;;;;8.20;4.90;;;8.50;99.90;;;;;;5008248;28;20570;-83
2021/12/13 08:52:01;;;;;;;7.90;5.00;;;8.40;99.90;;;;;;4986232;28;20088;-83
2021/12/13 08:55:11;;;;;;;10.60;5.50;;;8.50;99.90;;;;;;4994531;28;20030;-82
2021/12/13 08:57:55;;;;;;;4.53;2.90;;;8.50;99.90;;;;;;4996898;28;20030;-82
2021/12/13 09:00:39;;;;;;;3.55;2.22;;;8.50;99.90;;;;;;4981847;28;20037;-82
2021/12/13 09:03:12;;;;;;;6.93;4.63;;;8.50;99.90;;;;;;5000959;28;20029;-82
2021/12/13 09:06:01;;;;;;;10.38;4.10;;;8.50;99.90;;;;;;4992964;28;20033;-82
2021/12/13 09:09:01;;;;;;;7.28;4.75;;;8.50;99.90;;;;;;4987029;28;20425;-82
2021/12/13 09:11:54;;;;;;;6.13;4.15;;;8.50;99.90;;;;;;4951043;28;20040;-81
2021/12/13 09:14:51;;;;;;;6.93;3.92;;;8.50;99.90;;;;;;4992474;28;20041;-82
2021/12/13 09:17:25;;;;;;;8.75;5.63;;;8.50;99.90;;;;;;4985995;28;20037;-82
2021/12/13 09:20:04;;;;;;;4.20;3.08;;;8.50;99.90;;;;;;4989409;28;20053;-82
2021/12/13 09:22:43;;;;;;;8.88;4.47;;;8.50;99.90;;;;;;4989618;28;20497;-82
2021/12/13 09:25:31;;;;;;;7.88;4.13;;;8.50;99.90;;;;;;4970582;28;20109;-83
2021/12/13 09:28:10;;;;;;;7.90;4.03;;;8.50;99.90;;;;;;5006526;28;20068;-82
2021/12/13 09:30:52;;;;;;;7.70;4.53;;;8.50;99.90;;;;;;4980274;28;20021;-82
2021/12/13 09:33:20;;;;;;;6.47;4.20;;;8.60;99.90;;;;;;5002957;28;20482;-83
2021/12/13 09:35:54;;;;;;;5.03;3.70;;;8.60;99.90;;;;;;4988825;28;20061;-82
2021/12/13 09:38:30;;;;;;;9.63;4.90;;;8.60;99.90;;;;;;5006314;28;20033;-82
2021/12/13 09:40:58;;;;;;;6.35;4.38;;;8.60;99.90;;;;;;4989390;28;20033;-82
2021/12/13 09:43:45;;;;;;;9.20;4.53;;;8.60;99.90;;;;;;5006667;28;20041;-83
2021/12/13 09:46:12;;;;;;;6.30;4.07;;;8.60;99.90;;;;;;4980261;28;20396;-82
2021/12/13 09:48:44;;;;;;;5.10;3.40;;;8.60;99.90;;;;;;5006892;28;20068;-82
2021/12/13 09:51:22;;;;;;;2.83;1.95;;;8.60;99.90;;;;;;4977747;28;20057;-82
2021/12/13 09:53:51;;;;;;;8.27;3.60;;;8.60;99.90;;;;;;5006432;28;20041;-82
2021/12/13 09:56:18;;;;;;;6.47;3.30;;;8.70;99.90;;;;;;4973509;28;20030;-82
2021/12/13 09:58:52;;;;;;;7.30;4.15;;;8.70;99.90;;;;;;4995909;28;20030;-81
2021/12/13 10:01:20;;;;;;;6.22;4.00;;;8.70;99.90;;;;;;4992878;28;20128;-82
2021/12/13 10:03:51;;;;;;;9.43;4.30;;;8.70;99.90;;;;;;5008679;28;20048;-82
2021/12/13 10:06:22;;;;;;;5.88;4.10;;;8.70;99.90;;;;;;4989655;28;20029;-82
2021/12/13 10:08:58;;;;;;;6.07;4.20;;;8.70;99.90;;;;;;4978500;28;20042;-82
2021/12/13 10:11:35;;;;;;;8.02;4.18;;;8.70;99.90;;;;;;4990633;28;20067;-82
2021/12/13 10:14:01;;;;;;;8.35;4.65;;;8.70;99.90;;;;;;4988365;28;20045;-82
2021/12/13 10:16:31;;;;;;;8.98;4.40;;;8.70;99.90;;;;;;4992605;28;20046;-83
2021/12/13 10:18:57;;;;;;;6.45;4.38;;;8.70;99.90;;;;;;4973152;28;20052;-82
2021/12/13 10:21:29;;;;;;;7.65;3.90;;;8.80;99.90;;;;;;4975778;28;20037;-82
2021/12/13 10:23:57;;;;;;;5.72;4.25;;;8.80;99.90;;;;;;4969915;28;20037;-82
2021/12/13 10:26:25;;;;;;;7.15;3.85;;;8.80;99.90;;;;;;4988791;28;20451;-83
2021/12/13 10:28:55;;;;;;;9.82;4.00;;;8.80;99.90;;;;;;4989183;28;20037;-83
2021/12/13 10:31:34;;;;;;;5.60;2.47;;;8.80;99.90;;;;;;4967155;28;20913;-83
2021/12/13 10:34:03;;;;;;;6.22;3.42;;;8.80;99.90;;;;;;5006521;28;20057;-82
2021/12/13 10:36:29;;;;;;;6.30;3.88;;;8.80;99.90;;;;;;5008995;28;20485;-82
2021/12/13 10:38:59;;;;;;;9.10;3.60;;;8.80;99.90;;;;;;4975955;28;20088;-83
2021/12/13 10:41:35;;;;;;;7.10;3.08;;;8.80;99.90;;;;;;4990351;28;20083;-83
2021/12/13 10:44:05;;;;;;;8.38;3.53;;;8.80;99.90;;;;;;4969847;28;20041;-82
2021/12/13 10:46:44;;;;;;;3.00;2.28;;;8.80;99.90;;;;;;4974352;28;20049;-83
2021/12/13 10:49:14;;;;;;;5.53;3.50;;;8.80;99.90;;;;;;4982347;28;20039;-82
2021/12/13 10:51:41;;;;;;;6.32;3.15;;;8.80;99.90;;;;;;4975445;28;20037;-82
2021/12/13 10:54:12;;;;;;;7.10;3.53;;;8.90;99.90;;;;;;4968616;28;20105;-82
2021/12/13 10:56:43;;;;;;;5.90;3.10;;;8.90;99.90;;;;;;4987690;28;20036;-82
2021/12/13 10:59:12;;;;;;;7.53;2.88;;;8.80;99.90;;;;;;4987521;28;20038;-82
2021/12/13 11:01:41;;;;;;;4.30;2.85;;;8.90;99.90;;;;;;4988694;28;20091;-82
2021/12/13 11:04:08;;;;;;;7.05;3.38;;;8.90;99.90;;;;;;4966338;28;20033;-82
2021/12/13 11:06:35;;;;;;;8.45;3.40;;;8.90;99.90;;;;;;4976486;28;20120;-83
2021/12/13 11:09:05;;;;;;;5.30;2.97;;;8.90;99.90;;;;;;4975525;28;20040;-82
2021/12/13 11:11:44;;;;;;;6.68;2.78;;;8.90;99.90;;;;;;4988223;28;20044;-83
2021/12/13 11:14:13;;;;;;;7.65;3.25;;;8.90;99.90;;;;;;4987313;28;20037;-83
2021/12/13 11:16:42;;;;;;;3.63;2.72;;;8.90;99.90;;;;;;4992464;28;20037;-83
2021/12/13 11:19:11;;;;;;;5.95;3.70;;;8.90;99.90;;;;;;5005466;28;20037;-82
2021/12/13 11:21:38;;;;;;;6.40;3.20;;;8.90;99.90;;;;;;4989437;28;20039;-82
2021/12/13 11:24:08;;;;;;;7.63;3.42;;;8.90;99.90;;;;;;4989954;28;20030;-82
2021/12/13 11:26:39;;;;;;;3.65;3.08;;;8.90;99.90;;;;;;4974369;28;20033;-82
2021/12/13 11:29:05;;;;;;;5.75;3.33;;;8.90;99.90;;;;;;4989486;28;20440;-83
2021/12/13 11:31:30;;;;;;;5.50;3.63;;;8.90;99.90;;;;;;4973025;28;20033;-83
2021/12/13 11:34:00;;;;;;;5.47;3.13;;;8.90;99.90;;;;;;5002558;28;20592;-83
2021/12/13 11:37:06;;;;;;;5.28;2.92;;;8.90;99.90;;;;;;5020672;28;20091;-83
2021/12/13 11:39:56;;;;;;;5.82;2.85;;;8.90;99.90;;;;;;4988006;28;20033;-83
2021/12/13 11:42:40;;;;;;;6.13;4.18;;;8.90;99.90;;;;;;5023707;28;20123;-83
2021/12/13 11:45:45;;;;;;;6.90;3.13;;;9.00;99.90;;;;;;4994933;28;20034;-83
2021/12/13 11:48:32;;;;;;;3.35;2.97;;;9.00;99.90;;;;;;4999115;28;20121;-83
2021/12/13 11:51:29;;;;;;;9.40;3.85;;;9.00;99.90;;;;;;4997654;28;20037;-83
2021/12/13 11:54:32;;;;;;;3.40;2.20;;;9.00;99.90;;;;;;4990849;28;20516;-83
2021/12/13 11:57:30;;;;;;;6.18;2.95;;;9.00;99.90;;;;;;5021519;28;20130;-83
2021/12/13 12:00:15;;;;;;;8.13;3.67;;;9.00;99.90;;;;;;4986692;28;20571;-83
2021/12/13 12:03:20;;;;;;;6.40;3.92;;;9.00;99.90;;;;;;5006583;28;20060;-83
2021/12/13 12:06:10;;;;;;;5.72;3.25;;;9.00;99.90;;;;;;5003343;28;20088;-83
2021/12/13 12:09:09;;;;;;;5.25;3.03;;;9.10;99.90;;;;;;5002421;28;20083;-83
2021/12/13 12:12:12;;;;;;;5.10;3.20;;;9.10;99.90;;;;;;4966662;28;20390;-83
2021/12/13 12:14:38;;;;;;;5.15;3.78;;;9.10;99.90;;;;;;5002390;28;20025;-83
2021/12/13 12:17:04;;;;;;;6.18;4.03;;;9.10;99.90;;;;;;4990632;28;20030;-83
2021/12/13 12:19:33;;;;;;;5.30;3.40;;;9.20;99.90;;;;;;4995567;28;20517;-83
2021/12/13 12:22:06;;;;;;;5.90;3.72;;;9.20;99.90;;;;;;4985770;28;20506;-83
2021/12/13 12:24:35;;;;;;;6.05;3.95;;;9.20;99.90;;;;;;4991161;28;20041;-83
2021/12/13 12:27:12;;;;;;;5.70;3.63;;;9.10;99.90;;;;;;4982404;28;20033;-83
2021/12/13 12:29:40;;;;;;;4.72;3.45;;;9.20;99.90;;;;;;5003566;28;20053;-83
2021/12/13 12:32:11;;;;;;;6.32;3.58;;;9.20;99.90;;;;;;4978322;28;20025;-83
2021/12/13 12:34:48;;;;;;;9.55;3.55;;;9.20;99.90;;;;;;4976140;28;20061;-83
2021/12/13 12:37:25;;;;;;;6.55;3.35;;;9.30;99.90;;;;;;5003533;28;20026;-82
2021/12/13 12:40:08;;;;;;;6.75;4.00;;;9.30;99.90;;;;;;5006846;28;20057;-83
2021/12/13 12:42:37;;;;;;;7.13;3.75;;;9.30;99.90;;;;;;5020066;28;20084;-83
2021/12/13 12:45:27;;;;;;;10.43;4.43;;;9.40;99.90;;;;;;4995148;28;20037;-83
2021/12/13 12:47:53;;;;;;;6.32;3.42;;;9.40;99.90;;;;;;4970091;28;20033;-83
2021/12/13 12:50:45;;;;;;;3.33;2.60;;;9.50;99.90;;;;;;5010322;28;20037;-83
2021/12/13 12:53:14;;;;;;;8.55;3.38;;;9.50;99.90;;;;;;5009678;28;20734;-83
2021/12/13 12:56:13;;;;;;;3.50;2.90;;;9.50;99.90;;;;;;4994807;28;20240;-83
2021/12/13 12:58:52;;;;;;;6.55;3.50;;;9.50;99.90;;;;;;4987066;28;20030;-83
2021/12/13 13:01:40;;;;;;;4.53;3.05;;;9.60;99.90;;;;;;4971723;28;20762;-83
2021/12/13 13:04:10;;;;;;;6.57;4.00;;;9.60;99.90;;;;;;5008720;28;20108;-82
2021/12/13 13:06:35;;;;;;;5.10;2.67;;;9.70;99.90;;;;;;5007676;28;20034;-82
2021/12/13 13:09:06;;;;;;;5.93;3.70;;;9.70;99.90;;;;;;4973657;28;20511;-82
2021/12/13 13:11:35;;;;;;;5.63;3.60;;;9.70;99.90;;;;;;4974432;28;20498;-82
2021/12/13 13:14:11;;;;;;;6.93;3.13;;;9.70;99.90;;;;;;5005579;28;20500;-82
2021/12/13 13:16:51;;;;;;;8.38;3.90;;;9.80;99.90;;;;;;5002596;28;20598;-82
2021/12/13 13:19:24;;;;;;;5.60;3.28;;;9.80;99.90;;;;;;4988010;28;20545;-82
2021/12/13 13:21:50;;;;;;;7.35;3.75;;;9.90;99.90;;;;;;4993824;28;20524;-82
2021/12/13 13:24:15;;;;;;;5.57;3.30;;;9.80;99.90;;;;;;4972288;28;20038;-82
2021/12/13 13:26:42;;;;;;;3.95;2.45;;;9.90;99.90;;;;;;4993351;28;20039;-82
2021/12/13 13:29:11;;;;;;;6.53;3.15;;;9.80;99.90;;;;;;4971920;28;20038;-82
2021/12/13 13:31:57;;;;;;;5.43;2.83;;;9.90;99.90;;;;;;4988847;28;20120;-82
2021/12/13 13:34:30;;;;;;;5.35;3.15;;;9.80;99.90;;;;;;4975740;28;20202;-82
2021/12/13 13:37:05;;;;;;;4.38;3.28;;;9.80;99.90;;;;;;4989055;28;20037;-82